sensor_id;sensor_type;location;lat;lon;timestamp;pressure;altitude;pressure_sealevel;temperature;humidity
76132;BME280;64877;50.994;13.650;2024-01-06T00:02:09;98459.50;;;5.02;98.22
76132;BME280;64877;50.994;13.650;2024-01-06T00:04:35;98452.00;;;4.83;99.81
76132;BME280;64877;50.994;13.650;2024-01-06T00:07:01;98459.59;;;4.76;100.00
76132;BME280;64877;50.994;13.650;2024-01-06T00:09:26;98454.25;;;4.76;100.00
76132;BME280;64877;50.994;13.650;2024-01-06T00:11:52;98465.03;;;4.87;99.53
76132;BME280;64877;50.994;13.650;2024-01-06T00:14:18;98455.72;;;4.80;98.70
76132;BME280;64877;50.994;13.650;2024-01-06T00:16:43;98464.34;;;4.73;99.13
76132;BME280;64877;50.994;13.650;2024-01-06T00:19:08;98463.59;;;4.95;98.45
76132;BME280;64877;50.994;13.650;2024-01-06T00:21:34;98465.25;;;4.84;98.64
76132;BME280;64877;50.994;13.650;2024-01-06T00:23:59;98461.13;;;4.91;99.16
76132;BME280;64877;50.994;13.650;2024-01-06T00:26:25;98460.06;;;4.94;99.35
76132;BME280;64877;50.994;13.650;2024-01-06T00:28:50;98466.06;;;4.98;98.64
76132;BME280;64877;50.994;13.650;2024-01-06T00:31:16;98463.59;;;4.95;98.14
76132;BME280;64877;50.994;13.650;2024-01-06T00:33:42;98473.31;;;4.96;98.60
76132;BME280;64877;50.994;13.650;2024-01-06T00:36:08;98472.66;;;5.05;98.51
76132;BME280;64877;50.994;13.650;2024-01-06T00:38:34;98475.72;;;4.87;99.52
76132;BME280;64877;50.994;13.650;2024-01-06T00:41:00;98475.31;;;5.05;96.87
76132;BME280;64877;50.994;13.650;2024-01-06T00:43:26;98474.19;;;4.96;97.96
76132;BME280;64877;50.994;13.650;2024-01-06T00:45:52;98478.22;;;4.78;97.62
76132;BME280;64877;50.994;13.650;2024-01-06T00:48:18;98491.41;;;4.92;97.79
76132;BME280;64877;50.994;13.650;2024-01-06T00:50:43;98491.47;;;4.79;97.40
76132;BME280;64877;50.994;13.650;2024-01-06T00:53:09;98494.50;;;4.62;98.97
76132;BME280;64877;50.994;13.650;2024-01-06T00:55:34;98495.47;;;4.61;100.00
76132;BME280;64877;50.994;13.650;2024-01-06T00:58:00;98501.50;;;4.39;100.00
76132;BME280;64877;50.994;13.650;2024-01-06T01:00:25;98508.13;;;4.46;100.00
76132;BME280;64877;50.994;13.650;2024-01-06T01:02:52;98499.50;;;4.30;100.00
76132;BME280;64877;50.994;13.650;2024-01-06T01:05:18;98493.28;;;4.29;100.00
76132;BME280;64877;50.994;13.650;2024-01-06T01:07:44;98496.94;;;4.15;100.00
76132;BME280;64877;50.994;13.650;2024-01-06T01:10:09;98496.28;;;4.12;100.00
76132;BME280;64877;50.994;13.650;2024-01-06T01:12:35;98489.78;;;4.16;100.00
76132;BME280;64877;50.994;13.650;2024-01-06T01:15:00;98497.13;;;4.12;100.00
76132;BME280;64877;50.994;13.650;2024-01-06T01:17:25;98510.06;;;4.31;100.00
76132;BME280;64877;50.994;13.650;2024-01-06T01:19:51;98508.91;;;4.10;100.00
76132;BME280;64877;50.994;13.650;2024-01-06T01:22:16;98505.28;;;4.11;100.00
76132;BME280;64877;50.994;13.650;2024-01-06T01:24:42;98507.06;;;3.98;100.00
76132;BME280;64877;50.994;13.650;2024-01-06T01:27:08;98502.59;;;3.85;100.00
76132;BME280;64877;50.994;13.650;2024-01-06T01:29:33;98506.44;;;4.07;100.00
76132;BME280;64877;50.994;13.650;2024-01-06T01:31:58;98510.06;;;4.06;100.00
76132;BME280;64877;50.994;13.650;2024-01-06T01:34:24;98505.47;;;3.82;100.00
76132;BME280;64877;50.994;13.650;2024-01-06T01:36:49;98503.25;;;3.89;100.00
76132;BME280;64877;50.994;13.650;2024-01-06T01:39:15;98516.47;;;3.91;100.00
76132;BME280;64877;50.994;13.650;2024-01-06T01:41:40;98513.19;;;4.00;100.00
76132;BME280;64877;50.994;13.650;2024-01-06T01:44:06;98505.47;;;3.95;100.00
76132;BME280;64877;50.994;13.650;2024-01-06T01:46:32;98502.81;;;4.08;100.00
76132;BME280;64877;50.994;13.650;2024-01-06T01:49:00;98507.31;;;3.95;100.00
76132;BME280;64877;50.994;13.650;2024-01-06T01:51:30;98510.09;;;3.93;100.00
76132;BME280;64877;50.994;13.650;2024-01-06T01:54:01;98507.72;;;4.01;100.00
76132;BME280;64877;50.994;13.650;2024-01-06T01:56:27;98510.50;;;3.87;100.00
76132;BME280;64877;50.994;13.650;2024-01-06T01:58:54;98501.81;;;3.71;100.00
76132;BME280;64877;50.994;13.650;2024-01-06T02:01:20;98505.91;;;3.63;100.00
76132;BME280;64877;50.994;13.650;2024-01-06T02:03:45;98509.19;;;3.67;100.00
76132;BME280;64877;50.994;13.650;2024-01-06T02:06:11;98514.63;;;3.66;100.00
76132;BME280;64877;50.994;13.650;2024-01-06T02:08:37;98517.50;;;3.50;100.00
76132;BME280;64877;50.994;13.650;2024-01-06T02:11:03;98522.72;;;3.51;100.00
76132;BME280;64877;50.994;13.650;2024-01-06T02:13:33;98521.13;;;3.61;100.00
76132;BME280;64877;50.994;13.650;2024-01-06T02:15:59;98520.72;;;3.68;100.00
76132;BME280;64877;50.994;13.650;2024-01-06T02:18:24;98513.59;;;3.68;100.00
76132;BME280;64877;50.994;13.650;2024-01-06T02:20:51;98514.56;;;3.80;100.00
76132;BME280;64877;50.994;13.650;2024-01-06T02:23:18;98511.56;;;3.84;100.00
76132;BME280;64877;50.994;13.650;2024-01-06T02:25:43;98504.97;;;4.03;99.93
76132;BME280;64877;50.994;13.650;2024-01-06T02:28:08;98516.28;;;3.94;99.34
76132;BME280;64877;50.994;13.650;2024-01-06T02:30:34;98517.13;;;4.07;98.41
76132;BME280;64877;50.994;13.650;2024-01-06T02:32:59;98512.22;;;4.01;97.68
76132;BME280;64877;50.994;13.650;2024-01-06T02:35:25;98514.56;;;3.93;98.25
76132;BME280;64877;50.994;13.650;2024-01-06T02:37:50;98514.34;;;3.96;99.66
76132;BME280;64877;50.994;13.650;2024-01-06T02:40:15;98517.13;;;3.94;99.51
76132;BME280;64877;50.994;13.650;2024-01-06T02:42:41;98518.19;;;3.92;99.40
76132;BME280;64877;50.994;13.650;2024-01-06T02:45:07;98518.31;;;3.90;100.00
76132;BME280;64877;50.994;13.650;2024-01-06T02:47:34;98518.63;;;3.85;100.00
76132;BME280;64877;50.994;13.650;2024-01-06T02:50:00;98525.25;;;4.05;99.87
76132;BME280;64877;50.994;13.650;2024-01-06T02:52:25;98540.06;;;3.71;99.70
76132;BME280;64877;50.994;13.650;2024-01-06T02:54:51;98542.00;;;3.69;100.00
76132;BME280;64877;50.994;13.650;2024-01-06T02:57:16;98541.63;;;3.61;100.00
76132;BME280;64877;50.994;13.650;2024-01-06T02:59:42;98539.94;;;3.60;100.00
76132;BME280;64877;50.994;13.650;2024-01-06T03:02:07;98532.53;;;3.51;100.00
76132;BME280;64877;50.994;13.650;2024-01-06T03:04:33;98541.56;;;3.35;100.00
76132;BME280;64877;50.994;13.650;2024-01-06T03:06:58;98544.94;;;3.25;100.00
76132;BME280;64877;50.994;13.650;2024-01-06T03:09:23;98548.00;;;3.46;100.00
76132;BME280;64877;50.994;13.650;2024-01-06T03:11:49;98551.63;;;3.45;100.00
76132;BME280;64877;50.994;13.650;2024-01-06T03:14:14;98552.44;;;3.32;100.00
76132;BME280;64877;50.994;13.650;2024-01-06T03:16:40;98550.94;;;3.28;100.00
76132;BME280;64877;50.994;13.650;2024-01-06T03:19:05;98550.22;;;3.12;100.00
76132;BME280;64877;50.994;13.650;2024-01-06T03:21:31;98555.09;;;3.05;100.00
76132;BME280;64877;50.994;13.650;2024-01-06T03:23:56;98559.50;;;2.92;100.00
76132;BME280;64877;50.994;13.650;2024-01-06T03:26:22;98550.38;;;2.96;100.00
76132;BME280;64877;50.994;13.650;2024-01-06T03:28:50;98554.09;;;2.94;100.00
76132;BME280;64877;50.994;13.650;2024-01-06T03:31:15;98560.59;;;2.90;100.00
76132;BME280;64877;50.994;13.650;2024-01-06T03:33:42;98555.38;;;2.74;100.00
76132;BME280;64877;50.994;13.650;2024-01-06T03:36:08;98563.69;;;2.96;100.00
76132;BME280;64877;50.994;13.650;2024-01-06T03:38:33;98561.16;;;2.80;100.00
76132;BME280;64877;50.994;13.650;2024-01-06T03:40:59;98559.91;;;2.86;100.00
76132;BME280;64877;50.994;13.650;2024-01-06T03:43:24;98558.19;;;2.99;100.00
76132;BME280;64877;50.994;13.650;2024-01-06T03:45:50;98559.38;;;3.08;100.00
76132;BME280;64877;50.994;13.650;2024-01-06T03:48:15;98555.41;;;3.01;100.00
76132;BME280;64877;50.994;13.650;2024-01-06T03:50:40;98558.28;;;3.25;100.00
76132;BME280;64877;50.994;13.650;2024-01-06T03:53:06;98561.78;;;2.98;100.00
76132;BME280;64877;50.994;13.650;2024-01-06T03:55:32;98559.81;;;2.73;100.00
76132;BME280;64877;50.994;13.650;2024-01-06T03:57:58;98558.88;;;2.89;100.00
76132;BME280;64877;50.994;13.650;2024-01-06T04:00:25;98556.00;;;2.77;100.00
76132;BME280;64877;50.994;13.650;2024-01-06T04:02:51;98560.59;;;2.75;100.00
76132;BME280;64877;50.994;13.650;2024-01-06T04:05:16;98559.75;;;2.61;100.00
76132;BME280;64877;50.994;13.650;2024-01-06T04:07:42;98554.41;;;2.75;100.00
76132;BME280;64877;50.994;13.650;2024-01-06T04:10:07;98555.09;;;2.64;100.00
76132;BME280;64877;50.994;13.650;2024-01-06T04:12:33;98559.47;;;2.65;100.00
76132;BME280;64877;50.994;13.650;2024-01-06T04:14:58;98568.03;;;2.70;100.00
76132;BME280;64877;50.994;13.650;2024-01-06T04:17:24;98570.50;;;2.73;100.00
76132;BME280;64877;50.994;13.650;2024-01-06T04:19:51;98568.78;;;2.72;100.00
76132;BME280;64877;50.994;13.650;2024-01-06T04:22:16;98564.91;;;2.64;100.00
76132;BME280;64877;50.994;13.650;2024-01-06T04:24:42;98558.50;;;2.66;100.00
76132;BME280;64877;50.994;13.650;2024-01-06T04:27:07;98562.13;;;2.79;100.00
76132;BME280;64877;50.994;13.650;2024-01-06T04:29:32;98572.41;;;2.71;100.00
76132;BME280;64877;50.994;13.650;2024-01-06T04:31:58;98570.31;;;2.76;100.00
76132;BME280;64877;50.994;13.650;2024-01-06T04:34:23;98573.53;;;2.81;100.00
76132;BME280;64877;50.994;13.650;2024-01-06T04:36:48;98578.31;;;2.76;100.00
76132;BME280;64877;50.994;13.650;2024-01-06T04:39:15;98566.13;;;2.58;100.00
76132;BME280;64877;50.994;13.650;2024-01-06T04:41:40;98574.50;;;2.52;100.00
76132;BME280;64877;50.994;13.650;2024-01-06T04:44:06;98574.22;;;2.71;100.00
76132;BME280;64877;50.994;13.650;2024-01-06T04:46:31;98575.06;;;2.57;100.00
76132;BME280;64877;50.994;13.650;2024-01-06T04:48:57;98579.44;;;2.72;100.00
76132;BME280;64877;50.994;13.650;2024-01-06T04:51:22;98571.94;;;2.65;99.63
76132;BME280;64877;50.994;13.650;2024-01-06T04:53:48;98580.97;;;2.48;100.00
76132;BME280;64877;50.994;13.650;2024-01-06T04:56:13;98584.00;;;2.27;100.00
76132;BME280;64877;50.994;13.650;2024-01-06T04:58:39;98583.47;;;2.37;100.00
76132;BME280;64877;50.994;13.650;2024-01-06T05:01:04;98585.53;;;2.31;100.00
76132;BME280;64877;50.994;13.650;2024-01-06T05:03:30;98589.16;;;2.30;100.00
76132;BME280;64877;50.994;13.650;2024-01-06T05:05:55;98597.53;;;2.39;100.00
76132;BME280;64877;50.994;13.650;2024-01-06T05:08:20;98593.44;;;2.33;100.00
76132;BME280;64877;50.994;13.650;2024-01-06T05:10:52;98596.31;;;2.44;100.00
76132;BME280;64877;50.994;13.650;2024-01-06T05:13:18;98593.63;;;2.30;100.00
76132;BME280;64877;50.994;13.650;2024-01-06T05:15:44;98598.00;;;2.31;100.00
76132;BME280;64877;50.994;13.650;2024-01-06T05:18:09;98604.47;;;2.27;100.00
76132;BME280;64877;50.994;13.650;2024-01-06T05:20:34;98604.75;;;2.22;100.00
76132;BME280;64877;50.994;13.650;2024-01-06T05:23:00;98600.13;;;2.40;100.00
76132;BME280;64877;50.994;13.650;2024-01-06T05:25:25;98604.69;;;2.24;100.00
76132;BME280;64877;50.994;13.650;2024-01-06T05:27:51;98598.84;;;2.17;100.00
76132;BME280;64877;50.994;13.650;2024-01-06T05:30:16;98612.25;;;2.16;100.00
76132;BME280;64877;50.994;13.650;2024-01-06T05:32:43;98610.66;;;2.27;100.00
76132;BME280;64877;50.994;13.650;2024-01-06T05:35:09;98610.94;;;2.37;100.00
76132;BME280;64877;50.994;13.650;2024-01-06T05:37:34;98606.69;;;2.35;100.00
76132;BME280;64877;50.994;13.650;2024-01-06T05:39:59;98607.72;;;2.61;100.00
76132;BME280;64877;50.994;13.650;2024-01-06T05:42:27;98617.25;;;2.79;100.00
76132;BME280;64877;50.994;13.650;2024-01-06T05:44:53;98623.22;;;2.82;100.00
76132;BME280;64877;50.994;13.650;2024-01-06T05:47:19;98619.81;;;2.66;100.00
76132;BME280;64877;50.994;13.650;2024-01-06T05:49:45;98623.63;;;2.91;100.00
76132;BME280;64877;50.994;13.650;2024-01-06T05:52:10;98631.22;;;2.97;98.79
76132;BME280;64877;50.994;13.650;2024-01-06T05:54:36;98636.94;;;2.91;100.00
76132;BME280;64877;50.994;13.650;2024-01-06T05:57:01;98644.66;;;2.95;99.75
76132;BME280;64877;50.994;13.650;2024-01-06T05:59:27;98641.97;;;3.09;99.70
76132;BME280;64877;50.994;13.650;2024-01-06T06:01:53;98642.69;;;3.26;100.00
76132;BME280;64877;50.994;13.650;2024-01-06T06:04:18;98651.44;;;3.28;99.85
76132;BME280;64877;50.994;13.650;2024-01-06T06:06:44;98652.56;;;3.79;99.27
76132;BME280;64877;50.994;13.650;2024-01-06T06:09:10;98649.28;;;4.01;96.80
76132;BME280;64877;50.994;13.650;2024-01-06T06:11:35;98652.50;;;3.94;95.91
76132;BME280;64877;50.994;13.650;2024-01-06T06:14:01;98659.59;;;3.80;95.94
76132;BME280;64877;50.994;13.650;2024-01-06T06:16:28;98664.97;;;3.66;97.99
76132;BME280;64877;50.994;13.650;2024-01-06T06:18:53;98664.44;;;3.61;95.51
76132;BME280;64877;50.994;13.650;2024-01-06T06:21:20;98669.06;;;3.45;97.26
76132;BME280;64877;50.994;13.650;2024-01-06T06:23:45;98670.69;;;3.33;98.89
76132;BME280;64877;50.994;13.650;2024-01-06T06:26:11;98677.06;;;3.45;99.42
76132;BME280;64877;50.994;13.650;2024-01-06T06:28:37;98679.34;;;3.36;99.48
76132;BME280;64877;50.994;13.650;2024-01-06T06:31:03;98675.72;;;3.37;99.58
76132;BME280;64877;50.994;13.650;2024-01-06T06:33:28;98680.69;;;3.44;99.45
76132;BME280;64877;50.994;13.650;2024-01-06T06:35:54;98681.63;;;3.43;98.96
76132;BME280;64877;50.994;13.650;2024-01-06T06:38:19;98685.09;;;3.30;100.00
76132;BME280;64877;50.994;13.650;2024-01-06T06:40:46;98685.50;;;3.24;100.00
76132;BME280;64877;50.994;13.650;2024-01-06T06:43:13;98689.13;;;3.23;100.00
76132;BME280;64877;50.994;13.650;2024-01-06T06:45:39;98692.91;;;3.33;100.00
76132;BME280;64877;50.994;13.650;2024-01-06T06:48:04;98697.56;;;3.30;100.00
76132;BME280;64877;50.994;13.650;2024-01-06T06:50:30;98701.81;;;3.47;100.00
76132;BME280;64877;50.994;13.650;2024-01-06T06:52:55;98704.09;;;3.53;100.00
76132;BME280;64877;50.994;13.650;2024-01-06T06:55:21;98711.47;;;3.76;100.00
76132;BME280;64877;50.994;13.650;2024-01-06T06:57:46;98715.03;;;3.62;100.00
76132;BME280;64877;50.994;13.650;2024-01-06T07:00:12;98706.19;;;3.62;100.00
76132;BME280;64877;50.994;13.650;2024-01-06T07:02:38;98713.84;;;3.54;100.00
76132;BME280;64877;50.994;13.650;2024-01-06T07:05:03;98714.84;;;3.66;99.66
76132;BME280;64877;50.994;13.650;2024-01-06T07:07:32;98714.44;;;3.72;98.82
76132;BME280;64877;50.994;13.650;2024-01-06T07:10:00;98722.19;;;3.62;100.00
76132;BME280;64877;50.994;13.650;2024-01-06T07:12:26;98726.94;;;3.71;100.00
76132;BME280;64877;50.994;13.650;2024-01-06T07:14:52;98731.13;;;3.75;99.84
76132;BME280;64877;50.994;13.650;2024-01-06T07:17:18;98730.88;;;3.66;100.00
76132;BME280;64877;50.994;13.650;2024-01-06T07:19:44;98731.72;;;3.66;100.00
76132;BME280;64877;50.994;13.650;2024-01-06T07:22:09;98736.84;;;3.83;99.77
76132;BME280;64877;50.994;13.650;2024-01-06T07:24:34;98731.66;;;3.95;98.56
76132;BME280;64877;50.994;13.650;2024-01-06T07:27:02;98740.25;;;3.85;98.56
76132;BME280;64877;50.994;13.650;2024-01-06T07:29:28;98746.31;;;3.75;100.00
76132;BME280;64877;50.994;13.650;2024-01-06T07:31:54;98740.56;;;3.81;100.00
76132;BME280;64877;50.994;13.650;2024-01-06T07:34:19;98749.63;;;3.78;100.00
76132;BME280;64877;50.994;13.650;2024-01-06T07:36:45;98753.09;;;3.66;100.00
76132;BME280;64877;50.994;13.650;2024-01-06T07:39:10;98755.28;;;3.74;100.00
76132;BME280;64877;50.994;13.650;2024-01-06T07:41:35;98755.34;;;3.72;100.00
76132;BME280;64877;50.994;13.650;2024-01-06T07:44:01;98759.53;;;3.76;100.00
76132;BME280;64877;50.994;13.650;2024-01-06T07:46:28;98758.81;;;4.01;100.00
76132;BME280;64877;50.994;13.650;2024-01-06T07:48:54;98752.75;;;3.85;100.00
76132;BME280;64877;50.994;13.650;2024-01-06T07:51:19;98759.28;;;4.08;100.00
76132;BME280;64877;50.994;13.650;2024-01-06T07:53:45;98765.06;;;4.14;100.00
76132;BME280;64877;50.994;13.650;2024-01-06T07:56:10;98773.19;;;4.13;100.00
76132;BME280;64877;50.994;13.650;2024-01-06T07:58:36;98768.78;;;4.12;100.00
76132;BME280;64877;50.994;13.650;2024-01-06T08:01:01;98770.75;;;3.96;100.00
76132;BME280;64877;50.994;13.650;2024-01-06T08:03:27;98782.00;;;4.01;100.00
76132;BME280;64877;50.994;13.650;2024-01-06T08:05:52;98785.34;;;4.04;100.00
76132;BME280;64877;50.994;13.650;2024-01-06T08:08:17;98781.41;;;4.10;100.00
76132;BME280;64877;50.994;13.650;2024-01-06T08:10:44;98779.28;;;4.15;100.00
76132;BME280;64877;50.994;13.650;2024-01-06T08:13:09;98783.81;;;4.27;99.74
76132;BME280;64877;50.994;13.650;2024-01-06T08:15:35;98789.22;;;4.13;100.00
76132;BME280;64877;50.994;13.650;2024-01-06T08:18:00;98786.88;;;4.21;100.00
76132;BME280;64877;50.994;13.650;2024-01-06T08:20:26;98786.69;;;4.24;100.00
76132;BME280;64877;50.994;13.650;2024-01-06T08:22:51;98795.97;;;4.46;99.19
76132;BME280;64877;50.994;13.650;2024-01-06T08:25:17;98801.31;;;4.46;99.34
76132;BME280;64877;50.994;13.650;2024-01-06T08:27:43;98799.16;;;4.38;100.00
76132;BME280;64877;50.994;13.650;2024-01-06T08:30:09;98802.63;;;4.53;100.00
76132;BME280;64877;50.994;13.650;2024-01-06T08:32:34;98799.84;;;4.67;100.00
76132;BME280;64877;50.994;13.650;2024-01-06T08:35:00;98792.91;;;4.77;98.89
76132;BME280;64877;50.994;13.650;2024-01-06T08:37:25;98803.72;;;4.76;98.25
76132;BME280;64877;50.994;13.650;2024-01-06T08:39:51;98809.84;;;4.78;99.49
76132;BME280;64877;50.994;13.650;2024-01-06T08:42:16;98813.94;;;4.83;99.37
76132;BME280;64877;50.994;13.650;2024-01-06T08:44:41;98812.53;;;4.90;98.17
76132;BME280;64877;50.994;13.650;2024-01-06T08:47:09;98809.44;;;4.84;98.86
76132;BME280;64877;50.994;13.650;2024-01-06T08:49:34;98815.84;;;4.81;98.77
76132;BME280;64877;50.994;13.650;2024-01-06T08:52:00;98814.91;;;4.82;98.65
76132;BME280;64877;50.994;13.650;2024-01-06T08:54:25;98824.81;;;4.80;99.22
76132;BME280;64877;50.994;13.650;2024-01-06T08:56:51;98826.44;;;4.96;99.59
76132;BME280;64877;50.994;13.650;2024-01-06T08:59:16;98833.13;;;5.15;97.57
76132;BME280;64877;50.994;13.650;2024-01-06T09:01:41;98839.31;;;5.16;96.55
76132;BME280;64877;50.994;13.650;2024-01-06T09:04:07;98839.13;;;5.19;96.51
76132;BME280;64877;50.994;13.650;2024-01-06T09:06:34;98833.44;;;5.11;96.82
76132;BME280;64877;50.994;13.650;2024-01-06T09:09:00;98836.03;;;5.12;98.37
76132;BME280;64877;50.994;13.650;2024-01-06T09:11:25;98840.94;;;5.18;98.72
76132;BME280;64877;50.994;13.650;2024-01-06T09:13:51;98837.41;;;5.31;98.63
76132;BME280;64877;50.994;13.650;2024-01-06T09:16:18;98847.28;;;5.17;99.62
76132;BME280;64877;50.994;13.650;2024-01-06T09:18:44;98849.59;;;5.09;100.00
76132;BME280;64877;50.994;13.650;2024-01-06T09:21:09;98846.19;;;5.20;100.00
76132;BME280;64877;50.994;13.650;2024-01-06T09:23:35;98849.28;;;5.27;100.00
76132;BME280;64877;50.994;13.650;2024-01-06T09:26:00;98856.47;;;5.52;98.11
76132;BME280;64877;50.994;13.650;2024-01-06T09:28:26;98855.31;;;5.68;93.65
76132;BME280;64877;50.994;13.650;2024-01-06T09:30:51;98863.97;;;5.47;95.76
76132;BME280;64877;50.994;13.650;2024-01-06T09:33:19;98863.97;;;5.59;95.55
76132;BME280;64877;50.994;13.650;2024-01-06T09:35:45;98858.28;;;5.51;96.26
76132;BME280;64877;50.994;13.650;2024-01-06T09:38:10;98862.59;;;5.54;96.65
76132;BME280;64877;50.994;13.650;2024-01-06T09:40:41;98859.59;;;5.58;97.34
76132;BME280;64877;50.994;13.650;2024-01-06T09:43:08;98871.06;;;5.48;97.77
76132;BME280;64877;50.994;13.650;2024-01-06T09:45:34;98867.84;;;5.42;98.48
76132;BME280;64877;50.994;13.650;2024-01-06T09:48:04;98867.19;;;5.52;98.34
76132;BME280;64877;50.994;13.650;2024-01-06T09:50:33;98866.97;;;5.55;98.55
76132;BME280;64877;50.994;13.650;2024-01-06T09:52:59;98864.31;;;5.55;97.53
76132;BME280;64877;50.994;13.650;2024-01-06T09:55:31;98859.69;;;5.57;98.50
76132;BME280;64877;50.994;13.650;2024-01-06T09:57:56;98860.53;;;5.70;98.00
76132;BME280;64877;50.994;13.650;2024-01-06T10:00:22;98865.38;;;5.78;97.58
76132;BME280;64877;50.994;13.650;2024-01-06T10:02:48;98853.44;;;5.82;96.71
76132;BME280;64877;50.994;13.650;2024-01-06T10:05:15;98856.16;;;5.94;97.81
76132;BME280;64877;50.994;13.650;2024-01-06T10:07:45;98854.72;;;6.14;95.40
76132;BME280;64877;50.994;13.650;2024-01-06T10:10:11;98848.91;;;6.20;96.14
76132;BME280;64877;50.994;13.650;2024-01-06T10:12:41;98851.72;;;6.19;95.82
76132;BME280;64877;50.994;13.650;2024-01-06T10:15:11;98854.38;;;6.32;94.00
76132;BME280;64877;50.994;13.650;2024-01-06T10:17:38;98850.13;;;6.40;93.17
76132;BME280;64877;50.994;13.650;2024-01-06T10:20:07;98847.53;;;6.52;91.74
76132;BME280;64877;50.994;13.650;2024-01-06T10:22:35;98855.56;;;6.52;93.09
76132;BME280;64877;50.994;13.650;2024-01-06T10:25:01;98851.78;;;6.54;92.67
76132;BME280;64877;50.994;13.650;2024-01-06T10:27:26;98847.53;;;6.52;93.49
76132;BME280;64877;50.994;13.650;2024-01-06T10:29:51;98850.25;;;6.63;94.12
76132;BME280;64877;50.994;13.650;2024-01-06T10:32:17;98854.69;;;6.75;93.93
76132;BME280;64877;50.994;13.650;2024-01-06T10:34:43;98854.94;;;6.72;92.74
76132;BME280;64877;50.994;13.650;2024-01-06T10:37:10;98857.16;;;6.78;94.23
76132;BME280;64877;50.994;13.650;2024-01-06T10:39:36;98857.28;;;6.77;93.91
76132;BME280;64877;50.994;13.650;2024-01-06T10:42:02;98854.00;;;6.84;94.21
76132;BME280;64877;50.994;13.650;2024-01-06T10:44:31;98847.22;;;6.91;92.84
76132;BME280;64877;50.994;13.650;2024-01-06T10:46:57;98846.28;;;7.04;92.25
76132;BME280;64877;50.994;13.650;2024-01-06T10:49:23;98845.59;;;7.13;93.24
76132;BME280;64877;50.994;13.650;2024-01-06T10:51:51;98843.03;;;7.11;93.23
76132;BME280;64877;50.994;13.650;2024-01-06T10:54:17;98844.13;;;7.20;91.73
76132;BME280;64877;50.994;13.650;2024-01-06T10:56:45;98846.47;;;7.24;93.24
76132;BME280;64877;50.994;13.650;2024-01-06T10:59:11;98846.94;;;7.18;91.64
76132;BME280;64877;50.994;13.650;2024-01-06T11:01:37;98845.13;;;7.30;91.69
76132;BME280;64877;50.994;13.650;2024-01-06T11:04:04;98844.44;;;7.50;90.97
76132;BME280;64877;50.994;13.650;2024-01-06T11:06:31;98848.59;;;7.55;89.43
76132;BME280;64877;50.994;13.650;2024-01-06T11:09:06;98851.78;;;7.60;89.67
76132;BME280;64877;50.994;13.650;2024-01-06T11:11:35;98859.09;;;7.58;90.00
76132;BME280;64877;50.994;13.650;2024-01-06T11:14:24;98856.66;;;7.55;91.73
76132;BME280;64877;50.994;13.650;2024-01-06T11:16:50;98860.09;;;7.57;92.15
76132;BME280;64877;50.994;13.650;2024-01-06T11:24:47;98857.84;;;7.50;90.90
76132;BME280;64877;50.994;13.650;2024-01-06T11:27:29;98859.19;;;7.45;92.16
76132;BME280;64877;50.994;13.650;2024-01-06T11:29:57;98863.97;;;7.41;89.05
76132;BME280;64877;50.994;13.650;2024-01-06T11:32:32;98864.31;;;7.37;89.11
76132;BME280;64877;50.994;13.650;2024-01-06T11:35:09;98865.53;;;7.33;91.37
76132;BME280;64877;50.994;13.650;2024-01-06T11:40:10;98861.00;;;7.33;88.98
76132;BME280;64877;50.994;13.650;2024-01-06T11:42:41;98855.63;;;7.33;88.63
76132;BME280;64877;50.994;13.650;2024-01-06T11:45:07;98849.78;;;7.39;87.60
76132;BME280;64877;50.994;13.650;2024-01-06T11:47:34;98858.97;;;7.37;87.25
76132;BME280;64877;50.994;13.650;2024-01-06T11:50:01;98861.88;;;7.45;87.34
76132;BME280;64877;50.994;13.650;2024-01-06T11:52:32;98859.81;;;7.48;87.47
76132;BME280;64877;50.994;13.650;2024-01-06T11:54:59;98847.59;;;7.44;86.76
76132;BME280;64877;50.994;13.650;2024-01-06T11:57:29;98854.44;;;7.37;87.30
76132;BME280;64877;50.994;13.650;2024-01-06T11:59:55;98858.34;;;7.44;88.35
76132;BME280;64877;50.994;13.650;2024-01-06T12:02:21;98850.78;;;7.49;86.42
76132;BME280;64877;50.994;13.650;2024-01-06T12:04:50;98853.22;;;7.41;87.90
76132;BME280;64877;50.994;13.650;2024-01-06T12:07:17;98855.16;;;7.39;88.94
76132;BME280;64877;50.994;13.650;2024-01-06T12:09:42;98855.88;;;7.30;89.83
76132;BME280;64877;50.994;13.650;2024-01-06T12:12:08;98861.63;;;7.37;89.97
76132;BME280;64877;50.994;13.650;2024-01-06T12:14:40;98858.47;;;7.32;91.51
76132;BME280;64877;50.994;13.650;2024-01-06T12:17:06;98863.19;;;7.28;92.77
76132;BME280;64877;50.994;13.650;2024-01-06T12:19:32;98865.59;;;7.20;91.22
76132;BME280;64877;50.994;13.650;2024-01-06T12:21:58;98869.91;;;7.22;91.76
76132;BME280;64877;50.994;13.650;2024-01-06T12:24:26;98878.06;;;7.21;92.07
76132;BME280;64877;50.994;13.650;2024-01-06T12:26:52;98872.31;;;7.14;92.64
76132;BME280;64877;50.994;13.650;2024-01-06T12:29:17;98882.66;;;7.08;93.47
76132;BME280;64877;50.994;13.650;2024-01-06T12:31:43;98877.41;;;7.06;93.59
76132;BME280;64877;50.994;13.650;2024-01-06T12:34:12;98887.22;;;6.94;94.52
76132;BME280;64877;50.994;13.650;2024-01-06T12:36:38;98874.28;;;6.88;93.88
76132;BME280;64877;50.994;13.650;2024-01-06T12:39:04;98878.97;;;6.97;94.05
76132;BME280;64877;50.994;13.650;2024-01-06T12:41:30;98884.94;;;7.01;93.56
76132;BME280;64877;50.994;13.650;2024-01-06T12:43:59;98882.13;;;6.91;94.32
76132;BME280;64877;50.994;13.650;2024-01-06T12:46:26;98890.69;;;6.96;94.39
76132;BME280;64877;50.994;13.650;2024-01-06T12:48:51;98884.84;;;7.03;93.50
76132;BME280;64877;50.994;13.650;2024-01-06T12:51:17;98875.47;;;6.84;95.39
76132;BME280;64877;50.994;13.650;2024-01-06T12:53:42;98885.91;;;6.76;97.16
76132;BME280;64877;50.994;13.650;2024-01-06T12:56:07;98889.91;;;6.94;95.45
76132;BME280;64877;50.994;13.650;2024-01-06T12:58:33;98889.19;;;6.92;94.57